sensor_id;sensor_type;location;lat;lon;timestamp;temperature;humidity
24468;DHT22;12634;50.852;5.676;2023-04-06T00:01:07;4.40;99.90
24468;DHT22;12634;50.852;5.676;2023-04-06T00:03:35;4.40;99.90
24468;DHT22;12634;50.852;5.676;2023-04-06T00:06:04;4.40;99.90
24468;DHT22;12634;50.852;5.676;2023-04-06T00:08:31;4.30;99.90
24468;DHT22;12634;50.852;5.676;2023-04-06T00:10:58;4.30;99.90
24468;DHT22;12634;50.852;5.676;2023-04-06T00:13:25;4.10;99.90
24468;DHT22;12634;50.852;5.676;2023-04-06T00:15:52;4.10;99.90
24468;DHT22;12634;50.852;5.676;2023-04-06T00:18:19;4.20;99.90
24468;DHT22;12634;50.852;5.676;2023-04-06T00:20:46;4.10;99.90
24468;DHT22;12634;50.852;5.676;2023-04-06T00:23:15;4.10;99.90
24468;DHT22;12634;50.852;5.676;2023-04-06T00:25:42;4.10;99.90
24468;DHT22;12634;50.852;5.676;2023-04-06T00:28:09;4.10;99.90
24468;DHT22;12634;50.852;5.676;2023-04-06T00:30:36;4.20;99.90
24468;DHT22;12634;50.852;5.676;2023-04-06T00:33:03;4.00;99.90
24468;DHT22;12634;50.852;5.676;2023-04-06T00:35:30;3.90;99.90
24468;DHT22;12634;50.852;5.676;2023-04-06T00:37:58;3.90;99.90
24468;DHT22;12634;50.852;5.676;2023-04-06T00:40:26;3.90;99.90
24468;DHT22;12634;50.852;5.676;2023-04-06T00:42:54;3.80;99.90
24468;DHT22;12634;50.852;5.676;2023-04-06T00:45:21;3.80;99.90
24468;DHT22;12634;50.852;5.676;2023-04-06T00:47:48;3.70;99.90
24468;DHT22;12634;50.852;5.676;2023-04-06T00:50:16;3.60;99.90
24468;DHT22;12634;50.852;5.676;2023-04-06T00:52:43;3.60;99.90
24468;DHT22;12634;50.852;5.676;2023-04-06T00:55:10;3.40;99.90
24468;DHT22;12634;50.852;5.676;2023-04-06T00:57:39;3.40;99.90
24468;DHT22;12634;50.852;5.676;2023-04-06T01:00:07;3.40;99.90
24468;DHT22;12634;50.852;5.676;2023-04-06T01:02:35;3.40;99.90
24468;DHT22;12634;50.852;5.676;2023-04-06T01:05:03;3.50;99.90
24468;DHT22;12634;50.852;5.676;2023-04-06T01:07:30;3.40;99.90
24468;DHT22;12634;50.852;5.676;2023-04-06T01:09:57;3.50;99.90
24468;DHT22;12634;50.852;5.676;2023-04-06T01:12:24;3.40;99.90
24468;DHT22;12634;50.852;5.676;2023-04-06T01:14:53;3.20;99.90
24468;DHT22;12634;50.852;5.676;2023-04-06T01:17:20;3.20;99.90
24468;DHT22;12634;50.852;5.676;2023-04-06T01:19:47;3.10;99.90
24468;DHT22;12634;50.852;5.676;2023-04-06T01:22:17;3.00;99.90
24468;DHT22;12634;50.852;5.676;2023-04-06T01:24:45;3.00;99.90
24468;DHT22;12634;50.852;5.676;2023-04-06T01:27:13;3.00;99.90
24468;DHT22;12634;50.852;5.676;2023-04-06T01:29:40;3.00;99.90
24468;DHT22;12634;50.852;5.676;2023-04-06T01:32:08;3.00;99.90
24468;DHT22;12634;50.852;5.676;2023-04-06T01:34:35;3.00;99.90
24468;DHT22;12634;50.852;5.676;2023-04-06T01:37:04;3.10;99.90
24468;DHT22;12634;50.852;5.676;2023-04-06T01:39:32;3.10;99.90
24468;DHT22;12634;50.852;5.676;2023-04-06T01:41:59;3.00;99.90
24468;DHT22;12634;50.852;5.676;2023-04-06T01:44:26;3.00;99.90
24468;DHT22;12634;50.852;5.676;2023-04-06T01:46:56;3.10;99.90
24468;DHT22;12634;50.852;5.676;2023-04-06T01:49:23;3.00;99.90
24468;DHT22;12634;50.852;5.676;2023-04-06T01:51:50;3.00;99.90
24468;DHT22;12634;50.852;5.676;2023-04-06T01:54:18;3.10;99.90
24468;DHT22;12634;50.852;5.676;2023-04-06T01:56:46;3.10;99.90
24468;DHT22;12634;50.852;5.676;2023-04-06T01:59:15;3.00;99.90
24468;DHT22;12634;50.852;5.676;2023-04-06T02:01:42;2.90;99.90
24468;DHT22;12634;50.852;5.676;2023-04-06T02:04:10;2.70;99.90
24468;DHT22;12634;50.852;5.676;2023-04-06T02:06:39;2.60;99.90
24468;DHT22;12634;50.852;5.676;2023-04-06T02:09:06;2.60;99.90
24468;DHT22;12634;50.852;5.676;2023-04-06T02:11:33;2.80;99.90
24468;DHT22;12634;50.852;5.676;2023-04-06T02:14:02;2.80;99.90
24468;DHT22;12634;50.852;5.676;2023-04-06T02:16:29;2.80;99.90
24468;DHT22;12634;50.852;5.676;2023-04-06T02:18:56;2.80;99.90
24468;DHT22;12634;50.852;5.676;2023-04-06T02:21:24;2.70;99.90
24468;DHT22;12634;50.852;5.676;2023-04-06T02:23:51;2.70;99.90
24468;DHT22;12634;50.852;5.676;2023-04-06T02:26:18;2.80;99.90
24468;DHT22;12634;50.852;5.676;2023-04-06T02:28:45;2.90;99.90
24468;DHT22;12634;50.852;5.676;2023-04-06T02:31:14;2.80;99.90
24468;DHT22;12634;50.852;5.676;2023-04-06T02:33:41;2.50;99.90
24468;DHT22;12634;50.852;5.676;2023-04-06T02:36:08;2.40;99.90
24468;DHT22;12634;50.852;5.676;2023-04-06T02:38:35;2.40;99.90
24468;DHT22;12634;50.852;5.676;2023-04-06T02:41:03;2.50;99.90
24468;DHT22;12634;50.852;5.676;2023-04-06T02:43:30;2.50;99.90
24468;DHT22;12634;50.852;5.676;2023-04-06T02:45:57;2.60;99.90
24468;DHT22;12634;50.852;5.676;2023-04-06T02:48:25;2.50;99.90
24468;DHT22;12634;50.852;5.676;2023-04-06T02:50:52;2.70;99.90
24468;DHT22;12634;50.852;5.676;2023-04-06T02:53:20;2.80;99.90
24468;DHT22;12634;50.852;5.676;2023-04-06T02:55:47;2.70;99.90
24468;DHT22;12634;50.852;5.676;2023-04-06T02:58:14;2.80;99.90
24468;DHT22;12634;50.852;5.676;2023-04-06T03:00:41;2.90;99.90
24468;DHT22;12634;50.852;5.676;2023-04-06T03:03:08;3.00;99.90
24468;DHT22;12634;50.852;5.676;2023-04-06T03:05:36;3.10;99.90
24468;DHT22;12634;50.852;5.676;2023-04-06T03:08:04;3.10;99.90
24468;DHT22;12634;50.852;5.676;2023-04-06T03:10:31;3.00;99.90
24468;DHT22;12634;50.852;5.676;2023-04-06T03:12:58;3.00;99.90
24468;DHT22;12634;50.852;5.676;2023-04-06T03:15:25;3.10;99.90
24468;DHT22;12634;50.852;5.676;2023-04-06T03:17:52;3.10;99.90
24468;DHT22;12634;50.852;5.676;2023-04-06T03:20:19;3.30;99.90
24468;DHT22;12634;50.852;5.676;2023-04-06T03:22:48;3.40;99.90
24468;DHT22;12634;50.852;5.676;2023-04-06T03:25:15;3.50;99.90
24468;DHT22;12634;50.852;5.676;2023-04-06T03:27:42;3.50;99.90
24468;DHT22;12634;50.852;5.676;2023-04-06T03:30:10;3.50;99.90
24468;DHT22;12634;50.852;5.676;2023-04-06T03:32:37;3.60;99.90
24468;DHT22;12634;50.852;5.676;2023-04-06T03:35:04;3.50;99.90
24468;DHT22;12634;50.852;5.676;2023-04-06T03:37:32;3.50;99.90
24468;DHT22;12634;50.852;5.676;2023-04-06T03:40:00;3.50;99.90
24468;DHT22;12634;50.852;5.676;2023-04-06T03:42:27;3.50;99.90
24468;DHT22;12634;50.852;5.676;2023-04-06T03:44:54;3.40;99.90
24468;DHT22;12634;50.852;5.676;2023-04-06T03:47:22;3.50;99.90
24468;DHT22;12634;50.852;5.676;2023-04-06T03:49:50;3.50;99.90
24468;DHT22;12634;50.852;5.676;2023-04-06T03:52:18;3.60;99.90
24468;DHT22;12634;50.852;5.676;2023-04-06T03:54:45;3.70;99.90
24468;DHT22;12634;50.852;5.676;2023-04-06T03:57:14;3.70;99.90
24468;DHT22;12634;50.852;5.676;2023-04-06T03:59:41;3.70;99.90
24468;DHT22;12634;50.852;5.676;2023-04-06T04:02:08;3.80;99.90
24468;DHT22;12634;50.852;5.676;2023-04-06T04:04:35;3.70;99.90
24468;DHT22;12634;50.852;5.676;2023-04-06T04:07:02;3.80;99.90
24468;DHT22;12634;50.852;5.676;2023-04-06T04:09:30;3.80;99.90
24468;DHT22;12634;50.852;5.676;2023-04-06T04:11:57;3.90;99.90
24468;DHT22;12634;50.852;5.676;2023-04-06T04:14:25;3.70;99.90
24468;DHT22;12634;50.852;5.676;2023-04-06T04:16:52;3.70;99.90
24468;DHT22;12634;50.852;5.676;2023-04-06T04:19:19;3.70;99.90
24468;DHT22;12634;50.852;5.676;2023-04-06T04:21:47;3.70;99.90
24468;DHT22;12634;50.852;5.676;2023-04-06T04:24:14;3.60;99.90
24468;DHT22;12634;50.852;5.676;2023-04-06T04:26:41;3.70;99.90
24468;DHT22;12634;50.852;5.676;2023-04-06T04:29:08;3.70;99.90
24468;DHT22;12634;50.852;5.676;2023-04-06T04:31:37;3.60;99.90
24468;DHT22;12634;50.852;5.676;2023-04-06T04:34:04;3.60;99.90
24468;DHT22;12634;50.852;5.676;2023-04-06T04:36:32;3.70;99.90
24468;DHT22;12634;50.852;5.676;2023-04-06T04:38:59;3.70;99.90
24468;DHT22;12634;50.852;5.676;2023-04-06T04:41:27;3.70;99.90
24468;DHT22;12634;50.852;5.676;2023-04-06T04:43:54;3.80;99.90
24468;DHT22;12634;50.852;5.676;2023-04-06T04:46:21;3.80;99.90
24468;DHT22;12634;50.852;5.676;2023-04-06T04:48:49;3.80;99.90
24468;DHT22;12634;50.852;5.676;2023-04-06T04:51:17;4.00;99.90
24468;DHT22;12634;50.852;5.676;2023-04-06T04:53:45;4.00;99.90
24468;DHT22;12634;50.852;5.676;2023-04-06T04:56:12;4.00;99.90
24468;DHT22;12634;50.852;5.676;2023-04-06T04:58:39;4.10;99.90
24468;DHT22;12634;50.852;5.676;2023-04-06T05:01:06;4.10;99.90
24468;DHT22;12634;50.852;5.676;2023-04-06T05:03:34;4.10;99.90
24468;DHT22;12634;50.852;5.676;2023-04-06T05:06:05;4.20;99.90
24468;DHT22;12634;50.852;5.676;2023-04-06T05:08:33;4.20;99.90
24468;DHT22;12634;50.852;5.676;2023-04-06T05:11:00;4.20;99.90
24468;DHT22;12634;50.852;5.676;2023-04-06T05:13:27;4.30;99.90
24468;DHT22;12634;50.852;5.676;2023-04-06T05:15:56;4.40;99.90
24468;DHT22;12634;50.852;5.676;2023-04-06T05:18:23;4.50;99.90
24468;DHT22;12634;50.852;5.676;2023-04-06T05:20:50;4.60;99.90
24468;DHT22;12634;50.852;5.676;2023-04-06T05:23:19;4.60;99.90
24468;DHT22;12634;50.852;5.676;2023-04-06T05:25:46;4.60;99.90
24468;DHT22;12634;50.852;5.676;2023-04-06T05:28:13;4.60;99.90
24468;DHT22;12634;50.852;5.676;2023-04-06T05:30:42;4.50;99.90
24468;DHT22;12634;50.852;5.676;2023-04-06T05:33:10;4.60;99.90
24468;DHT22;12634;50.852;5.676;2023-04-06T05:35:37;4.60;99.90
24468;DHT22;12634;50.852;5.676;2023-04-06T05:38:08;4.80;99.90
24468;DHT22;12634;50.852;5.676;2023-04-06T05:40:37;4.80;99.90
24468;DHT22;12634;50.852;5.676;2023-04-06T05:43:06;4.80;99.90
24468;DHT22;12634;50.852;5.676;2023-04-06T05:45:34;4.90;99.90
24468;DHT22;12634;50.852;5.676;2023-04-06T05:48:01;4.90;99.90
24468;DHT22;12634;50.852;5.676;2023-04-06T05:50:28;5.00;99.90
24468;DHT22;12634;50.852;5.676;2023-04-06T05:52:55;5.10;99.90
24468;DHT22;12634;50.852;5.676;2023-04-06T05:55:23;5.20;99.90
24468;DHT22;12634;50.852;5.676;2023-04-06T05:57:51;5.10;99.90
24468;DHT22;12634;50.852;5.676;2023-04-06T06:00:18;5.20;99.90
24468;DHT22;12634;50.852;5.676;2023-04-06T06:02:46;5.30;99.90
24468;DHT22;12634;50.852;5.676;2023-04-06T06:05:13;5.30;99.90
24468;DHT22;12634;50.852;5.676;2023-04-06T06:07:40;5.30;99.90
24468;DHT22;12634;50.852;5.676;2023-04-06T06:10:08;5.30;99.90
24468;DHT22;12634;50.852;5.676;2023-04-06T06:12:36;5.40;99.90
24468;DHT22;12634;50.852;5.676;2023-04-06T06:15:05;5.40;99.90
24468;DHT22;12634;50.852;5.676;2023-04-06T06:17:33;5.40;99.90
24468;DHT22;12634;50.852;5.676;2023-04-06T06:20:00;5.50;99.90
24468;DHT22;12634;50.852;5.676;2023-04-06T06:22:27;5.60;99.90
24468;DHT22;12634;50.852;5.676;2023-04-06T06:24:54;5.60;99.90
24468;DHT22;12634;50.852;5.676;2023-04-06T06:27:21;5.70;99.90
24468;DHT22;12634;50.852;5.676;2023-04-06T06:29:49;5.70;99.90
24468;DHT22;12634;50.852;5.676;2023-04-06T06:32:18;5.80;99.90
24468;DHT22;12634;50.852;5.676;2023-04-06T06:34:45;5.80;99.90
24468;DHT22;12634;50.852;5.676;2023-04-06T06:37:13;6.00;99.90
24468;DHT22;12634;50.852;5.676;2023-04-06T06:39:40;6.00;99.90
24468;DHT22;12634;50.852;5.676;2023-04-06T06:42:07;6.10;99.90
24468;DHT22;12634;50.852;5.676;2023-04-06T06:44:34;6.20;99.90
24468;DHT22;12634;50.852;5.676;2023-04-06T06:47:01;6.30;99.90
24468;DHT22;12634;50.852;5.676;2023-04-06T06:49:30;6.30;99.90
24468;DHT22;12634;50.852;5.676;2023-04-06T06:51:57;6.40;99.90
24468;DHT22;12634;50.852;5.676;2023-04-06T06:54:24;6.40;99.90
24468;DHT22;12634;50.852;5.676;2023-04-06T06:56:51;6.40;99.90
24468;DHT22;12634;50.852;5.676;2023-04-06T06:59:20;6.50;99.90
24468;DHT22;12634;50.852;5.676;2023-04-06T07:01:47;6.50;99.90
24468;DHT22;12634;50.852;5.676;2023-04-06T07:04:15;6.50;99.90
24468;DHT22;12634;50.852;5.676;2023-04-06T07:06:43;6.60;99.90
24468;DHT22;12634;50.852;5.676;2023-04-06T07:09:11;6.70;99.90
24468;DHT22;12634;50.852;5.676;2023-04-06T07:11:38;6.90;99.90
24468;DHT22;12634;50.852;5.676;2023-04-06T07:14:05;7.00;99.90
24468;DHT22;12634;50.852;5.676;2023-04-06T07:16:32;7.00;99.90
24468;DHT22;12634;50.852;5.676;2023-04-06T07:18:59;7.10;99.90
24468;DHT22;12634;50.852;5.676;2023-04-06T07:21:27;7.20;99.90
24468;DHT22;12634;50.852;5.676;2023-04-06T07:23:55;7.40;99.90
24468;DHT22;12634;50.852;5.676;2023-04-06T07:26:22;7.30;99.90
24468;DHT22;12634;50.852;5.676;2023-04-06T07:28:49;7.30;99.90
24468;DHT22;12634;50.852;5.676;2023-04-06T07:31:16;7.40;99.90
24468;DHT22;12634;50.852;5.676;2023-04-06T07:33:44;7.50;99.90
24468;DHT22;12634;50.852;5.676;2023-04-06T07:36:11;7.60;99.90
24468;DHT22;12634;50.852;5.676;2023-04-06T07:38:38;7.70;99.90
24468;DHT22;12634;50.852;5.676;2023-04-06T07:41:07;7.80;99.90
24468;DHT22;12634;50.852;5.676;2023-04-06T07:43:34;7.90;99.90
24468;DHT22;12634;50.852;5.676;2023-04-06T07:46:01;7.90;99.90
24468;DHT22;12634;50.852;5.676;2023-04-06T07:48:28;8.00;99.90
24468;DHT22;12634;50.852;5.676;2023-04-06T07:51:01;8.20;99.90
24468;DHT22;12634;50.852;5.676;2023-04-06T07:53:28;8.20;99.90
24468;DHT22;12634;50.852;5.676;2023-04-06T07:55:56;8.10;99.90
24468;DHT22;12634;50.852;5.676;2023-04-06T07:58:24;8.20;99.90
24468;DHT22;12634;50.852;5.676;2023-04-06T08:00:51;8.40;99.90
24468;DHT22;12634;50.852;5.676;2023-04-06T08:03:20;8.50;99.90
24468;DHT22;12634;50.852;5.676;2023-04-06T08:05:51;8.50;99.90
24468;DHT22;12634;50.852;5.676;2023-04-06T08:08:19;8.60;99.90
24468;DHT22;12634;50.852;5.676;2023-04-06T08:10:47;8.70;99.90
24468;DHT22;12634;50.852;5.676;2023-04-06T08:13:14;8.80;99.90
24468;DHT22;12634;50.852;5.676;2023-04-06T08:15:43;8.70;99.90
24468;DHT22;12634;50.852;5.676;2023-04-06T08:18:10;8.70;99.90
24468;DHT22;12634;50.852;5.676;2023-04-06T08:20:37;8.80;99.90
24468;DHT22;12634;50.852;5.676;2023-04-06T08:23:04;8.90;99.90
24468;DHT22;12634;50.852;5.676;2023-04-06T08:25:33;9.00;99.90
24468;DHT22;12634;50.852;5.676;2023-04-06T08:28:01;9.00;99.90
24468;DHT22;12634;50.852;5.676;2023-04-06T08:30:28;8.90;99.90
24468;DHT22;12634;50.852;5.676;2023-04-06T08:32:57;8.90;99.90
24468;DHT22;12634;50.852;5.676;2023-04-06T08:35:24;9.10;99.90
24468;DHT22;12634;50.852;5.676;2023-04-06T08:37:51;8.90;99.90
24468;DHT22;12634;50.852;5.676;2023-04-06T08:40:18;9.00;99.90
24468;DHT22;12634;50.852;5.676;2023-04-06T08:42:52;9.10;99.90
24468;DHT22;12634;50.852;5.676;2023-04-06T08:45:20;9.20;99.90
24468;DHT22;12634;50.852;5.676;2023-04-06T08:47:48;9.40;99.90
24468;DHT22;12634;50.852;5.676;2023-04-06T08:50:18;9.30;99.90
24468;DHT22;12634;50.852;5.676;2023-04-06T08:52:48;9.40;99.90
24468;DHT22;12634;50.852;5.676;2023-04-06T08:55:15;9.50;99.90
24468;DHT22;12634;50.852;5.676;2023-04-06T08:57:43;9.50;99.90
24468;DHT22;12634;50.852;5.676;2023-04-06T09:00:11;9.60;99.90
24468;DHT22;12634;50.852;5.676;2023-04-06T09:02:39;9.90;99.90
24468;DHT22;12634;50.852;5.676;2023-04-06T09:05:08;9.90;99.90
24468;DHT22;12634;50.852;5.676;2023-04-06T09:07:38;10.10;99.90
24468;DHT22;12634;50.852;5.676;2023-04-06T09:10:06;10.10;99.90
24468;DHT22;12634;50.852;5.676;2023-04-06T09:12:34;10.10;99.90
24468;DHT22;12634;50.852;5.676;2023-04-06T09:15:02;10.60;99.90
24468;DHT22;12634;50.852;5.676;2023-04-06T09:17:30;10.70;99.90
24468;DHT22;12634;50.852;5.676;2023-04-06T09:19:59;10.80;99.90
24468;DHT22;12634;50.852;5.676;2023-04-06T09:22:37;10.60;99.90
24468;DHT22;12634;50.852;5.676;2023-04-06T09:25:05;10.60;99.90
24468;DHT22;12634;50.852;5.676;2023-04-06T09:27:34;10.80;99.90
24468;DHT22;12634;50.852;5.676;2023-04-06T09:30:06;11.10;99.90
24468;DHT22;12634;50.852;5.676;2023-04-06T09:32:44;10.60;99.90
24468;DHT22;12634;50.852;5.676;2023-04-06T09:35:13;10.60;99.90
24468;DHT22;12634;50.852;5.676;2023-04-06T09:37:42;10.70;99.90
24468;DHT22;12634;50.852;5.676;2023-04-06T09:40:09;11.00;99.90
24468;DHT22;12634;50.852;5.676;2023-04-06T09:42:37;11.00;99.90
24468;DHT22;12634;50.852;5.676;2023-04-06T09:45:05;10.90;99.90
24468;DHT22;12634;50.852;5.676;2023-04-06T09:47:33;10.60;99.90
24468;DHT22;12634;50.852;5.676;2023-04-06T09:50:03;10.70;99.90
24468;DHT22;12634;50.852;5.676;2023-04-06T09:52:32;10.50;99.90
24468;DHT22;12634;50.852;5.676;2023-04-06T09:55:03;10.60;99.90
24468;DHT22;12634;50.852;5.676;2023-04-06T09:57:35;10.60;99.90
24468;DHT22;12634;50.852;5.676;2023-04-06T10:00:05;10.60;99.90
24468;DHT22;12634;50.852;5.676;2023-04-06T10:02:41;10.60;99.90
24468;DHT22;12634;50.852;5.676;2023-04-06T10:05:16;10.70;99.90
24468;DHT22;12634;50.852;5.676;2023-04-06T10:07:48;10.80;99.90
24468;DHT22;12634;50.852;5.676;2023-04-06T10:10:19;10.60;99.90
24468;DHT22;12634;50.852;5.676;2023-04-06T10:12:47;10.60;99.90
24468;DHT22;12634;50.852;5.676;2023-04-06T10:15:15;10.60;99.90
24468;DHT22;12634;50.852;5.676;2023-04-06T10:17:43;10.60;99.90
24468;DHT22;12634;50.852;5.676;2023-04-06T10:20:16;10.50;99.90
24468;DHT22;12634;50.852;5.676;2023-04-06T10:23:01;10.20;99.90
24468;DHT22;12634;50.852;5.676;2023-04-06T10:25:34;10.30;99.90
24468;DHT22;12634;50.852;5.676;2023-04-06T10:28:05;10.10;99.90
24468;DHT22;12634;50.852;5.676;2023-04-06T10:30:33;10.00;99.90
24468;DHT22;12634;50.852;5.676;2023-04-06T10:33:12;9.90;99.90
24468;DHT22;12634;50.852;5.676;2023-04-06T10:35:40;10.00;99.90
24468;DHT22;12634;50.852;5.676;2023-04-06T10:38:07;10.10;99.90
24468;DHT22;12634;50.852;5.676;2023-04-06T10:40:37;9.80;99.90
24468;DHT22;12634;50.852;5.676;2023-04-06T10:43:09;9.70;99.90
24468;DHT22;12634;50.852;5.676;2023-04-06T10:45:36;9.70;99.90
24468;DHT22;12634;50.852;5.676;2023-04-06T10:48:13;9.60;99.90
24468;DHT22;12634;50.852;5.676;2023-04-06T10:50:42;9.60;99.90
24468;DHT22;12634;50.852;5.676;2023-04-06T10:53:09;9.60;99.90
24468;DHT22;12634;50.852;5.676;2023-04-06T10:55:39;9.50;99.90
24468;DHT22;12634;50.852;5.676;2023-04-06T10:58:07;9.60;99.90
24468;DHT22;12634;50.852;5.676;2023-04-06T11:00:34;9.20;99.90
24468;DHT22;12634;50.852;5.676;2023-04-06T11:03:02;9.10;99.90
24468;DHT22;12634;50.852;5.676;2023-04-06T11:05:29;9.00;99.90
24468;DHT22;12634;50.852;5.676;2023-04-06T11:07:57;8.90;99.90
24468;DHT22;12634;50.852;5.676;2023-04-06T11:10:24;8.80;99.90
24468;DHT22;12634;50.852;5.676;2023-04-06T11:12:56;8.80;99.90
24468;DHT22;12634;50.852;5.676;2023-04-06T11:15:23;8.70;99.90
24468;DHT22;12634;50.852;5.676;2023-04-06T11:17:50;8.70;99.90
24468;DHT22;12634;50.852;5.676;2023-04-06T11:20:17;8.60;99.90
24468;DHT22;12634;50.852;5.676;2023-04-06T11:22:49;8.60;99.90
24468;DHT22;12634;50.852;5.676;2023-04-06T11:25:17;8.50;99.90
24468;DHT22;12634;50.852;5.676;2023-04-06T11:27:45;8.40;99.90
24468;DHT22;12634;50.852;5.676;2023-04-06T11:30:15;8.40;99.90
24468;DHT22;12634;50.852;5.676;2023-04-06T11:32:43;8.30;99.90
24468;DHT22;12634;50.852;5.676;2023-04-06T11:35:11;8.20;99.90
24468;DHT22;12634;50.852;5.676;2023-04-06T11:37:39;8.20;99.90
24468;DHT22;12634;50.852;5.676;2023-04-06T11:40:08;8.20;99.90
24468;DHT22;12634;50.852;5.676;2023-04-06T11:42:36;8.30;99.90
24468;DHT22;12634;50.852;5.676;2023-04-06T11:45:04;8.20;99.90
24468;DHT22;12634;50.852;5.676;2023-04-06T11:47:34;8.30;99.90
24468;DHT22;12634;50.852;5.676;2023-04-06T11:50:08;8.30;99.90
24468;DHT22;12634;50.852;5.676;2023-04-06T11:52:35;8.40;99.90
24468;DHT22;12634;50.852;5.676;2023-04-06T11:55:11;8.40;99.90
24468;DHT22;12634;50.852;5.676;2023-04-06T11:57:40;8.30;99.90
24468;DHT22;12634;50.852;5.676;2023-04-06T12:00:08;8.40;99.90
24468;DHT22;12634;50.852;5.676;2023-04-06T12:02:38;8.50;99.90
24468;DHT22;12634;50.852;5.676;2023-04-06T12:05:06;8.50;99.90
24468;DHT22;12634;50.852;5.676;2023-04-06T12:07:34;8.40;99.90
24468;DHT22;12634;50.852;5.676;2023-04-06T12:10:02;8.40;99.90
24468;DHT22;12634;50.852;5.676;2023-04-06T12:12:30;8.40;99.90
24468;DHT22;12634;50.852;5.676;2023-04-06T12:14:57;8.60;99.90
24468;DHT22;12634;50.852;5.676;2023-04-06T12:17:24;8.50;99.90
24468;DHT22;12634;50.852;5.676;2023-04-06T12:19:53;8.60;99.90
24468;DHT22;12634;50.852;5.676;2023-04-06T12:22:20;8.60;99.90
24468;DHT22;12634;50.852;5.676;2023-04-06T12:24:47;8.60;99.90
24468;DHT22;12634;50.852;5.676;2023-04-06T12:27:14;8.60;99.90
24468;DHT22;12634;50.852;5.676;2023-04-06T12:29:43;8.50;99.90
24468;DHT22;12634;50.852;5.676;2023-04-06T12:32:10;8.50;99.90
24468;DHT22;12634;50.852;5.676;2023-04-06T12:34:38;8.50;99.90
24468;DHT22;12634;50.852;5.676;2023-04-06T12:37:06;8.50;99.90
24468;DHT22;12634;50.852;5.676;2023-04-06T12:39:34;8.60;99.90
24468;DHT22;12634;50.852;5.676;2023-04-06T12:42:01;8.70;99.90
24468;DHT22;12634;50.852;5.676;2023-04-06T12:44:29;8.60;99.90
24468;DHT22;12634;50.852;5.676;2023-04-06T12:46:56;8.60;99.90
24468;DHT22;12634;50.852;5.676;2023-04-06T12:49:23;8.60;99.90
24468;DHT22;12634;50.852;5.676;2023-04-06T12:51:51;8.60;99.90
24468;DHT22;12634;50.852;5.676;2023-04-06T12:54:19;8.60;99.90
24468;DHT22;12634;50.852;5.676;2023-04-06T12:56:47;8.60;99.90
24468;DHT22;12634;50.852;5.676;2023-04-06T12:59:14;8.70;99.90
24468;DHT22;12634;50.852;5.676;2023-04-06T13:01:42;8.70;99.90
24468;DHT22;12634;50.852;5.676;2023-04-06T13:04:09;8.70;99.90
24468;DHT22;12634;50.852;5.676;2023-04-06T13:06:37;8.70;99.90
24468;DHT22;12634;50.852;5.676;2023-04-06T13:09:04;8.60;99.90
24468;DHT22;12634;50.852;5.676;2023-04-06T13:11:32;8.60;99.90
24468;DHT22;12634;50.852;5.676;2023-04-06T13:14:00;8.70;99.90
24468;DHT22;12634;50.852;5.676;2023-04-06T13:16:27;8.70;99.90
24468;DHT22;12634;50.852;5.676;2023-04-06T13:18:55;8.70;99.90
24468;DHT22;12634;50.852;5.676;2023-04-06T13:21:22;8.70;99.90
24468;DHT22;12634;50.852;5.676;2023-04-06T13:23:50;8.70;99.90
24468;DHT22;12634;50.852;5.676;2023-04-06T13:26:17;8.70;99.90
24468;DHT22;12634;50.852;5.676;2023-04-06T13:28:46;8.70;99.90
24468;DHT22;12634;50.852;5.676;2023-04-06T13:31:14;8.60;99.90
24468;DHT22;12634;50.852;5.676;2023-04-06T13:33:41;8.70;99.90
24468;DHT22;12634;50.852;5.676;2023-04-06T13:36:08;8.70;99.90
24468;DHT22;12634;50.852;5.676;2023-04-06T13:38:35;8.70;99.90
24468;DHT22;12634;50.852;5.676;2023-04-06T13:41:04;8.70;99.90
24468;DHT22;12634;50.852;5.676;2023-04-06T13:43:32;8.80;99.90
24468;DHT22;12634;50.852;5.676;2023-04-06T13:46:00;8.80;99.90
24468;DHT22;12634;50.852;5.676;2023-04-06T13:48:27;8.80;99.90
24468;DHT22;12634;50.852;5.676;2023-04-06T13:50:55;8.80;99.90
24468;DHT22;12634;50.852;5.676;2023-04-06T13:53:22;8.80;99.90
24468;DHT22;12634;50.852;5.676;2023-04-06T13:55:53;8.90;99.90
24468;DHT22;12634;50.852;5.676;2023-04-06T13:58:21;8.90;99.90
24468;DHT22;12634;50.852;5.676;2023-04-06T14:00:48;9.00;99.90
24468;DHT22;12634;50.852;5.676;2023-04-06T14:03:16;9.10;99.90
24468;DHT22;12634;50.852;5.676;2023-04-06T14:05:44;9.10;99.90
24468;DHT22;12634;50.852;5.676;2023-04-06T14:08:11;9.00;99.90
24468;DHT22;12634;50.852;5.676;2023-04-06T14:10:39;9.10;99.90
24468;DHT22;12634;50.852;5.676;2023-04-06T14:13:07;9.00;99.90
24468;DHT22;12634;50.852;5.676;2023-04-06T14:15:35;9.10;99.90
24468;DHT22;12634;50.852;5.676;2023-04-06T14:18:02;9.10;99.90
24468;DHT22;12634;50.852;5.676;2023-04-06T14:20:32;9.10;99.90
24468;DHT22;12634;50.852;5.676;2023-04-06T14:23:00;9.20;99.90
24468;DHT22;12634;50.852;5.676;2023-04-06T14:25:27;9.00;99.90
24468;DHT22;12634;50.852;5.676;2023-04-06T14:27:57;9.10;99.90
24468;DHT22;12634;50.852;5.676;2023-04-06T14:30:24;9.10;99.90
24468;DHT22;12634;50.852;5.676;2023-04-06T14:32:51;9.10;99.90
24468;DHT22;12634;50.852;5.676;2023-04-06T14:35:18;9.10;99.90
24468;DHT22;12634;50.852;5.676;2023-04-06T14:37:47;9.00;99.90
24468;DHT22;12634;50.852;5.676;2023-04-06T14:40:14;9.10;99.90
24468;DHT22;12634;50.852;5.676;2023-04-06T14:42:41;9.00;99.90
24468;DHT22;12634;50.852;5.676;2023-04-06T14:45:09;9.00;99.90
24468;DHT22;12634;50.852;5.676;2023-04-06T14:47:36;8.90;99.90
24468;DHT22;12634;50.852;5.676;2023-04-06T14:50:05;8.80;99.90
24468;DHT22;12634;50.852;5.676;2023-04-06T14:52:32;8.80;99.90
24468;DHT22;12634;50.852;5.676;2023-04-06T14:55:01;8.80;99.90
24468;DHT22;12634;50.852;5.676;2023-04-06T14:57:28;8.80;99.90
24468;DHT22;12634;50.852;5.676;2023-04-06T14:59:55;8.80;99.90
24468;DHT22;12634;50.852;5.676;2023-04-06T15:02:22;8.80;99.90
24468;DHT22;12634;50.852;5.676;2023-04-06T15:04:49;8.90;99.90
24468;DHT22;12634;50.852;5.676;2023-04-06T15:07:16;8.90;99.90
24468;DHT22;12634;50.852;5.676;2023-04-06T15:09:43;9.00;99.90
24468;DHT22;12634;50.852;5.676;2023-04-06T15:12:12;8.90;99.90
24468;DHT22;12634;50.852;5.676;2023-04-06T15:14:39;8.90;99.90
24468;DHT22;12634;50.852;5.676;2023-04-06T15:17:06;8.90;99.90
24468;DHT22;12634;50.852;5.676;2023-04-06T15:19:34;8.80;99.90
24468;DHT22;12634;50.852;5.676;2023-04-06T15:22:02;8.80;99.90
24468;DHT22;12634;50.852;5.676;2023-04-06T15:24:29;8.80;99.90
24468;DHT22;12634;50.852;5.676;2023-04-06T15:26:56;8.80;99.90
24468;DHT22;12634;50.852;5.676;2023-04-06T15:29:25;9.20;99.90
24468;DHT22;12634;50.852;5.676;2023-04-06T15:31:52;9.10;99.90
24468;DHT22;12634;50.852;5.676;2023-04-06T15:34:19;8.90;99.90
24468;DHT22;12634;50.852;5.676;2023-04-06T15:36:47;8.70;99.90
24468;DHT22;12634;50.852;5.676;2023-04-06T15:39:14;8.70;99.90
24468;DHT22;12634;50.852;5.676;2023-04-06T15:41:41;8.60;99.90
24468;DHT22;12634;50.852;5.676;2023-04-06T15:44:08;8.60;99.90
24468;DHT22;12634;50.852;5.676;2023-04-06T15:46:37;8.60;99.90
24468;DHT22;12634;50.852;5.676;2023-04-06T15:49:04;8.60;99.90